Time;durP1;ratioP1;P1;durP2;ratioP2;P2;SDS_P1;SDS_P2;PMS_P1;PMS_P2;Temp;Humidity;BMP_temperature;BMP_pressure;BME280_temperature;BME280_humidity;BME280_pressure;Samples;Min_cycle;Max_cycle;Signal;HPM_P1;HPM_P2
2023/06/07 00:00:48;;;;;;;6.70;4.13;;;13.60;99.80;;;;;;5067416;28;20226;-80
2023/06/07 00:03:15;;;;;;;10.33;4.33;;;13.60;99.90;;;;;;5066331;28;20318;-80
2023/06/07 00:05:43;;;;;;;9.27;4.37;;;13.60;99.90;;;;;;5069864;28;20979;-79
2023/06/07 00:08:10;;;;;;;8.97;4.70;;;13.50;99.90;;;;;;5068239;28;20226;-80
2023/06/07 00:10:36;;;;;;;8.07;4.83;;;13.40;99.90;;;;;;5067587;28;20218;-79
2023/06/07 00:13:05;;;;;;;7.27;4.83;;;13.40;99.90;;;;;;5069186;28;20233;-79
2023/06/07 00:15:32;;;;;;;11.50;5.10;;;13.40;99.90;;;;;;5069462;28;20222;-79
2023/06/07 00:17:59;;;;;;;11.83;4.80;;;13.30;99.90;;;;;;5067607;28;20231;-79
2023/06/07 00:20:26;;;;;;;10.40;4.80;;;13.30;99.90;;;;;;5064925;28;20704;-79
2023/06/07 00:22:55;;;;;;;8.97;4.50;;;13.20;99.90;;;;;;5069662;28;20288;-80
2023/06/07 00:25:22;;;;;;;12.60;5.10;;;13.20;99.90;;;;;;5068978;28;20254;-80
2023/06/07 00:27:49;;;;;;;11.90;4.70;;;13.20;99.90;;;;;;5069156;28;20219;-80
2023/06/07 00:30:17;;;;;;;9.90;5.33;;;13.10;99.90;;;;;;5062632;28;20313;-80
2023/06/07 00:32:44;;;;;;;12.60;4.97;;;13.10;99.90;;;;;;5067034;28;20242;-80
2023/06/07 00:35:12;;;;;;;10.93;4.80;;;13.00;99.90;;;;;;5067191;28;20219;-80
2023/06/07 00:37:39;;;;;;;14.00;4.97;;;13.00;99.90;;;;;;5064405;28;20222;-80
2023/06/07 00:40:06;;;;;;;14.40;4.97;;;13.00;99.90;;;;;;5060716;28;20976;-80
2023/06/07 00:42:34;;;;;;;10.77;4.43;;;12.90;99.90;;;;;;5070388;28;20297;-80
2023/06/07 00:45:00;;;;;;;10.60;5.10;;;12.90;99.90;;;;;;5065259;28;20256;-80
2023/06/07 00:47:29;;;;;;;8.00;4.10;;;12.90;99.90;;;;;;5059765;28;20296;-80
2023/06/07 00:49:56;;;;;;;12.30;5.33;;;12.80;99.90;;;;;;5083459;28;20217;-79
2023/06/07 00:52:22;;;;;;;10.70;4.67;;;12.80;99.90;;;;;;5066742;28;20306;-79
2023/06/07 00:54:51;;;;;;;10.63;4.97;;;12.70;99.90;;;;;;5063682;28;20762;-79
2023/06/07 00:57:18;;;;;;;9.70;4.90;;;12.70;99.90;;;;;;5065768;28;20272;-79
2023/06/07 00:59:45;;;;;;;10.73;4.67;;;12.70;99.90;;;;;;5065554;28;20222;-79
2023/06/07 01:02:14;;;;;;;10.97;5.30;;;12.60;99.90;;;;;;5062134;28;20226;-79
2023/06/07 01:04:42;;;;;;;14.27;5.70;;;12.60;99.90;;;;;;5073110;28;20231;-80
2023/06/07 01:07:09;;;;;;;9.97;5.10;;;12.50;99.90;;;;;;5062059;28;20708;-80
2023/06/07 01:09:40;;;;;;;11.80;5.27;;;12.50;99.90;;;;;;5065922;28;20227;-80
2023/06/07 01:12:11;;;;;;;13.57;5.43;;;12.50;99.90;;;;;;5083460;28;20224;-79
2023/06/07 01:14:38;;;;;;;9.87;4.77;;;12.40;99.90;;;;;;5072545;28;20241;-80
2023/06/07 01:17:08;;;;;;;11.67;4.70;;;12.40;99.90;;;;;;5062941;28;20283;-80
2023/06/07 01:19:37;;;;;;;11.30;5.33;;;12.30;99.90;;;;;;5070281;28;20954;-79
2023/06/07 01:22:08;;;;;;;8.87;4.63;;;12.30;99.90;;;;;;5069199;28;20223;-79
2023/06/07 01:24:37;;;;;;;12.43;5.00;;;12.30;99.90;;;;;;5060748;28;20253;-79
2023/06/07 01:27:07;;;;;;;12.83;4.93;;;12.20;99.90;;;;;;5065774;28;20311;-79
2023/06/07 01:29:34;;;;;;;12.77;5.57;;;12.20;99.90;;;;;;5066019;28;20693;-80
2023/06/07 01:32:09;;;;;;;12.27;5.50;;;12.20;99.90;;;;;;5064556;28;20320;-79
2023/06/07 01:34:36;;;;;;;11.37;5.53;;;12.10;99.90;;;;;;5062273;28;20232;-79
2023/06/07 01:37:03;;;;;;;9.70;4.77;;;12.10;99.90;;;;;;5068305;28;20701;-79
2023/06/07 01:39:32;;;;;;;9.57;5.33;;;12.00;99.90;;;;;;5064120;28;20253;-80
2023/06/07 01:42:02;;;;;;;11.30;5.73;;;12.00;99.90;;;;;;5068899;28;20258;-80
2023/06/07 01:44:30;;;;;;;8.80;5.27;;;11.90;99.90;;;;;;5064187;28;20240;-80
2023/06/07 01:46:57;;;;;;;13.43;5.23;;;11.90;99.90;;;;;;5064029;28;20228;-79
2023/06/07 01:49:24;;;;;;;12.03;5.70;;;11.90;99.90;;;;;;5069506;28;20224;-80
2023/06/07 01:51:51;;;;;;;8.80;5.20;;;11.80;99.90;;;;;;5068771;28;20608;-79
2023/06/07 01:54:19;;;;;;;9.70;4.97;;;11.80;99.90;;;;;;5063651;28;20219;-79
2023/06/07 01:56:56;;;;;;;11.10;5.00;;;11.80;99.90;;;;;;5061844;28;20235;-80
2023/06/07 01:59:34;;;;;;;9.77;5.27;;;11.70;99.90;;;;;;5060513;28;20234;-79
2023/06/07 02:02:08;;;;;;;14.93;4.93;;;11.70;99.90;;;;;;5064775;28;20230;-79
2023/06/07 02:04:38;;;;;;;12.00;5.17;;;11.60;99.90;;;;;;5061962;28;20630;-79
2023/06/07 02:07:09;;;;;;;12.80;5.43;;;11.60;99.90;;;;;;5067435;28;20310;-79
2023/06/07 02:09:39;;;;;;;14.77;5.80;;;11.60;99.90;;;;;;5067399;28;20922;-80
2023/06/07 02:12:10;;;;;;;12.93;5.20;;;11.50;99.90;;;;;;5059731;28;20314;-80
2023/06/07 02:14:38;;;;;;;12.93;5.43;;;11.50;99.90;;;;;;5065971;28;20294;-80
2023/06/07 02:17:07;;;;;;;12.10;5.60;;;11.40;99.90;;;;;;5063565;28;20242;-80
2023/06/07 02:19:36;;;;;;;14.20;5.40;;;11.40;99.90;;;;;;5066250;28;20248;-80
2023/06/07 02:22:04;;;;;;;11.03;5.43;;;11.40;99.90;;;;;;5063257;28;20888;-80
2023/06/07 02:24:31;;;;;;;13.07;5.30;;;11.30;99.90;;;;;;5061969;28;20228;-80
2023/06/07 02:26:58;;;;;;;8.13;5.30;;;11.30;99.90;;;;;;5066204;28;20230;-79
2023/06/07 02:29:25;;;;;;;14.17;5.30;;;11.30;99.90;;;;;;5061106;28;20725;-80
2023/06/07 02:31:57;;;;;;;12.90;4.93;;;11.30;99.90;;;;;;5062371;28;20229;-80
2023/06/07 02:34:26;;;;;;;13.90;5.87;;;11.20;99.90;;;;;;5057543;28;20254;-80
2023/06/07 02:36:53;;;;;;;10.93;5.53;;;11.20;99.90;;;;;;5058205;28;20227;-80
2023/06/07 02:39:21;;;;;;;14.83;5.50;;;11.10;99.90;;;;;;5062144;28;20230;-80
2023/06/07 02:41:49;;;;;;;14.60;5.57;;;11.10;99.90;;;;;;5061504;28;20225;-80
2023/06/07 02:44:17;;;;;;;12.97;5.40;;;11.10;99.90;;;;;;5062180;28;20222;-79
2023/06/07 02:46:44;;;;;;;13.87;5.10;;;11.00;99.90;;;;;;5061491;28;20226;-80
2023/06/07 02:49:13;;;;;;;12.27;5.47;;;11.00;99.90;;;;;;5087160;28;20270;-80
2023/06/07 02:51:40;;;;;;;12.93;5.77;;;11.00;99.90;;;;;;5067792;28;20698;-79
2023/06/07 02:54:08;;;;;;;13.00;5.83;;;11.00;99.90;;;;;;5055208;28;20259;-78
2023/06/07 02:56:36;;;;;;;15.83;6.23;;;10.90;99.90;;;;;;5061739;28;20219;-78
2023/06/07 02:59:03;;;;;;;11.27;5.50;;;10.90;99.90;;;;;;5060142;28;20256;-78
2023/06/07 03:01:37;;;;;;;17.07;5.80;;;10.80;99.90;;;;;;5060039;28;20224;-78
2023/06/07 03:04:05;;;;;;;15.13;6.03;;;10.80;99.90;;;;;;5061840;28;20866;-78
2023/06/07 03:06:34;;;;;;;14.93;5.90;;;10.80;99.90;;;;;;5069036;28;20258;-78
2023/06/07 03:09:17;;;;;;;12.93;5.43;;;10.80;99.90;;;;;;5063604;28;20215;-78
2023/06/07 03:11:45;;;;;;;15.03;5.63;;;10.80;99.90;;;;;;5067002;28;20247;-78
2023/06/07 03:14:12;;;;;;;18.07;5.57;;;10.80;99.90;;;;;;5064166;28;20636;-78
2023/06/07 03:16:44;;;;;;;13.20;5.43;;;10.70;99.90;;;;;;5082915;28;20409;-79
2023/06/07 03:19:12;;;;;;;14.03;5.97;;;10.80;99.90;;;;;;5062391;28;20216;-79
2023/06/07 03:21:44;;;;;;;16.27;5.90;;;10.70;99.90;;;;;;5063800;28;20215;-79
2023/06/07 03:24:11;;;;;;;16.63;6.00;;;10.70;99.90;;;;;;5065821;28;20678;-79
2023/06/07 03:26:39;;;;;;;16.43;5.87;;;10.70;99.90;;;;;;5064586;28;20302;-79
2023/06/07 03:29:06;;;;;;;12.23;5.20;;;10.70;99.90;;;;;;5066188;28;20281;-79
2023/06/07 03:31:36;;;;;;;19.03;5.77;;;10.70;99.90;;;;;;5057471;28;20245;-79
2023/06/07 03:34:07;;;;;;;15.13;5.70;;;10.70;99.90;;;;;;5060859;28;20234;-79
2023/06/07 03:36:35;;;;;;;12.27;5.93;;;10.70;99.90;;;;;;5059317;28;20294;-78
2023/06/07 03:39:04;;;;;;;17.03;6.37;;;10.70;99.90;;;;;;5064259;28;20234;-78
2023/06/07 03:41:31;;;;;;;12.13;5.60;;;10.70;99.90;;;;;;5060935;28;20244;-78
2023/06/07 03:44:01;;;;;;;13.87;5.77;;;10.70;99.90;;;;;;5082814;28;20860;-79
2023/06/07 03:46:29;;;;;;;17.20;6.80;;;10.70;99.90;;;;;;5064675;28;20245;-79
2023/06/07 03:48:56;;;;;;;13.60;5.47;;;10.70;99.90;;;;;;5071088;28;20215;-79
2023/06/07 03:51:24;;;;;;;17.23;5.93;;;10.80;99.90;;;;;;5063732;28;20237;-79
2023/06/07 03:53:51;;;;;;;20.20;5.60;;;10.80;99.90;;;;;;5063479;28;20230;-79
2023/06/07 03:56:19;;;;;;;11.83;5.30;;;10.80;99.90;;;;;;5063725;28;20228;-79
2023/06/07 03:58:46;;;;;;;16.27;6.20;;;10.80;99.90;;;;;;5062491;28;20330;-79
2023/06/07 04:01:16;;;;;;;18.70;5.17;;;10.80;99.90;;;;;;5064419;28;20227;-79
2023/06/07 04:03:43;;;;;;;16.60;5.33;;;10.80;99.90;;;;;;5065883;28;20305;-79
2023/06/07 04:06:10;;;;;;;17.30;6.17;;;10.90;99.90;;;;;;5065827;28;20224;-78
2023/06/07 04:08:38;;;;;;;15.43;5.63;;;10.90;99.90;;;;;;5061227;28;20225;-79
2023/06/07 04:11:06;;;;;;;14.97;5.63;;;10.90;99.90;;;;;;5067118;28;20217;-79
2023/06/07 04:13:34;;;;;;;16.33;5.40;;;10.90;99.90;;;;;;5065792;28;21218;-79
2023/06/07 04:16:01;;;;;;;14.87;5.33;;;11.00;99.90;;;;;;5066900;28;20225;-79
2023/06/07 04:18:27;;;;;;;18.00;5.27;;;11.00;99.90;;;;;;5062042;28;20634;-79
2023/06/07 04:20:54;;;;;;;14.30;5.33;;;11.00;99.90;;;;;;5068441;28;20226;-79
2023/06/07 04:23:22;;;;;;;14.73;5.43;;;11.10;99.90;;;;;;5061816;28;20754;-80
2023/06/07 04:25:49;;;;;;;12.07;5.23;;;11.10;99.90;;;;;;5060904;28;20224;-80
2023/06/07 04:28:23;;;;;;;14.77;5.20;;;11.10;99.90;;;;;;5066275;28;20601;-80
2023/06/07 04:30:53;;;;;;;17.83;5.60;;;11.10;99.90;;;;;;5068979;28;21743;-80
2023/06/07 04:33:21;;;;;;;14.70;6.13;;;11.20;99.90;;;;;;5061909;28;20235;-80
2023/06/07 04:35:51;;;;;;;12.30;5.13;;;11.10;99.90;;;;;;5064282;28;20275;-79
2023/06/07 04:38:21;;;;;;;18.87;6.07;;;11.10;99.90;;;;;;5066997;28;20231;-80
2023/06/07 04:40:52;;;;;;;13.07;4.80;;;11.20;99.90;;;;;;5062055;28;20217;-79
2023/06/07 04:43:30;;;;;;;13.83;5.10;;;11.10;99.90;;;;;;5064255;28;20245;-80
2023/06/07 04:46:01;;;;;;;12.60;5.17;;;11.20;99.90;;;;;;5067240;28;20301;-79
2023/06/07 04:48:31;;;;;;;16.00;4.90;;;11.20;99.90;;;;;;5062129;28;20217;-80
2023/06/07 04:51:03;;;;;;;16.47;5.37;;;11.20;99.90;;;;;;5061843;28;20238;-79
2023/06/07 04:53:34;;;;;;;19.10;5.77;;;11.30;99.90;;;;;;5060422;28;20228;-79
2023/06/07 04:56:02;;;;;;;19.90;5.77;;;11.30;99.90;;;;;;5065169;28;20302;-79
2023/06/07 04:58:29;;;;;;;17.80;6.23;;;11.40;99.90;;;;;;5060249;28;21066;-79
2023/06/07 05:00:57;;;;;;;14.67;5.43;;;11.40;99.90;;;;;;5065061;28;20228;-79
2023/06/07 05:03:25;;;;;;;15.63;5.60;;;11.50;99.90;;;;;;5068080;28;20227;-79
2023/06/07 05:05:55;;;;;;;15.77;5.40;;;11.50;99.90;;;;;;5061598;28;20251;-79
2023/06/07 05:08:23;;;;;;;16.70;5.77;;;11.60;99.90;;;;;;5061318;28;20220;-79
2023/06/07 05:10:51;;;;;;;13.33;5.57;;;11.60;99.90;;;;;;5057151;28;20586;-79
2023/06/07 05:13:19;;;;;;;14.93;5.40;;;11.70;99.90;;;;;;5062028;28;20223;-79
2023/06/07 05:15:46;;;;;;;13.80;5.30;;;11.70;99.90;;;;;;5062636;28;20223;-80
2023/06/07 05:18:18;;;;;;;14.13;5.50;;;11.80;99.90;;;;;;5065799;28;20230;-79
2023/06/07 05:20:47;;;;;;;13.10;5.20;;;11.80;99.90;;;;;;5065925;28;20219;-79
2023/06/07 05:23:16;;;;;;;17.03;5.57;;;11.80;99.90;;;;;;5066919;28;20828;-78
2023/06/07 05:25:43;;;;;;;14.60;5.40;;;11.80;99.90;;;;;;5064684;28;20228;-79
2023/06/07 05:28:11;;;;;;;11.00;4.73;;;11.90;99.90;;;;;;5077736;28;20241;-79
2023/06/07 05:30:39;;;;;;;16.60;5.53;;;11.90;99.90;;;;;;5064350;28;20744;-80
2023/06/07 05:33:07;;;;;;;11.67;4.43;;;11.90;99.90;;;;;;5065478;28;20231;-80
2023/06/07 05:35:35;;;;;;;10.43;4.77;;;12.00;99.90;;;;;;5066113;28;20312;-79
2023/06/07 05:38:04;;;;;;;15.77;5.33;;;12.10;99.90;;;;;;5061882;28;20226;-79
2023/06/07 05:40:31;;;;;;;11.60;4.43;;;12.10;99.90;;;;;;5057903;28;20212;-80
2023/06/07 05:42:58;;;;;;;12.07;4.70;;;12.20;99.90;;;;;;5064589;28;20231;-80
2023/06/07 05:45:26;;;;;;;12.67;4.47;;;12.30;99.90;;;;;;5064648;28;20540;-79
2023/06/07 05:47:53;;;;;;;13.37;4.93;;;12.20;99.90;;;;;;5060177;28;20283;-80
2023/06/07 05:50:20;;;;;;;10.50;4.33;;;12.30;99.90;;;;;;5065125;28;20240;-79
2023/06/07 05:52:56;;;;;;;12.03;4.67;;;12.40;99.90;;;;;;5064641;28;20472;-80
2023/06/07 05:55:24;;;;;;;11.10;4.90;;;12.40;99.90;;;;;;5061355;28;20471;-79
2023/06/07 05:57:51;;;;;;;10.93;4.70;;;12.50;99.90;;;;;;5057323;28;20558;-80
2023/06/07 06:00:19;;;;;;;10.47;5.03;;;12.50;99.90;;;;;;5061182;28;20321;-79
2023/06/07 06:02:46;;;;;;;13.10;5.53;;;12.60;99.90;;;;;;5049531;28;20295;-80
2023/06/07 06:05:13;;;;;;;13.67;5.03;;;12.60;99.90;;;;;;5067492;28;20222;-78
2023/06/07 06:07:40;;;;;;;12.37;4.63;;;12.70;99.90;;;;;;5068523;28;20246;-79
2023/06/07 06:10:07;;;;;;;12.10;4.87;;;12.80;99.90;;;;;;5062653;28;20224;-80
2023/06/07 06:12:35;;;;;;;12.63;5.10;;;12.90;99.90;;;;;;5062700;28;20595;-79
2023/06/07 06:15:02;;;;;;;13.90;4.80;;;12.90;99.90;;;;;;5067035;28;20254;-80
2023/06/07 06:17:28;;;;;;;11.30;5.07;;;13.00;99.90;;;;;;5057707;28;20225;-80
2023/06/07 06:19:55;;;;;;;13.13;5.17;;;13.10;99.90;;;;;;5065513;28;20222;-81
2023/06/07 06:22:22;;;;;;;8.97;4.40;;;13.10;99.90;;;;;;5065719;28;20579;-79
2023/06/07 06:24:48;;;;;;;13.23;5.10;;;13.20;99.90;;;;;;5060217;28;20715;-80
2023/06/07 06:27:15;;;;;;;14.53;5.13;;;13.20;99.90;;;;;;5060972;28;20225;-80
2023/06/07 06:29:44;;;;;;;13.17;4.90;;;13.40;99.90;;;;;;5069129;28;20692;-79
2023/06/07 06:32:10;;;;;;;12.80;5.20;;;13.60;99.90;;;;;;5063655;28;20319;-79
2023/06/07 06:34:37;;;;;;;15.23;5.53;;;13.80;99.90;;;;;;5071003;28;20439;-80
2023/06/07 06:37:05;;;;;;;16.53;6.13;;;14.00;99.90;;;;;;5067314;28;20265;-80
2023/06/07 06:39:32;;;;;;;11.47;4.83;;;14.20;99.90;;;;;;5066286;28;20223;-79
2023/06/07 06:41:59;;;;;;;10.55;5.40;;;14.40;99.90;;;;;;5063543;28;20647;-80
2023/06/07 06:44:46;;;;;;;9.33;4.97;;;14.60;99.90;;;;;;5061212;28;20253;-80
2023/06/07 06:47:15;;;;;;;10.97;4.80;;;14.80;99.90;;;;;;5062028;28;20211;-80
2023/06/07 06:49:41;;;;;;;10.87;4.93;;;14.90;99.90;;;;;;5058956;28;20619;-80
2023/06/07 06:52:08;;;;;;;10.13;5.10;;;15.00;99.90;;;;;;5064230;28;20219;-80
2023/06/07 06:54:35;;;;;;;11.65;4.90;;;15.10;99.90;;;;;;5062883;28;20318;-80
2023/06/07 06:57:02;;;;;;;8.60;5.17;;;15.20;99.90;;;;;;5061104;28;20310;-80
2023/06/07 06:59:28;;;;;;;7.68;4.63;;;15.20;99.90;;;;;;5065059;28;20227;-80
2023/06/07 07:01:58;;;;;;;9.07;4.50;;;15.40;99.90;;;;;;5056558;28;20228;-81
2023/06/07 07:04:25;;;;;;;7.38;4.25;;;15.60;99.90;;;;;;5071502;28;20704;-80
2023/06/07 07:06:52;;;;;;;11.75;4.03;;;16.00;99.90;;;;;;5066618;28;20269;-80
2023/06/07 07:09:18;;;;;;;6.50;3.72;;;16.60;99.90;;;;;;5066192;28;20223;-79
2023/06/07 07:11:45;;;;;;;7.35;4.05;;;17.20;99.90;;;;;;5064830;28;20219;-80
2023/06/07 07:14:12;;;;;;;8.10;4.40;;;18.00;99.90;;;;;;5061118;28;20579;-80
2023/06/07 07:16:39;;;;;;;5.95;3.97;;;18.60;99.90;;;;;;5061981;28;20235;-81
2023/06/07 07:19:07;;;;;;;8.30;3.50;;;19.30;99.40;;;;;;5068013;28;20700;-79
2023/06/07 07:21:34;;;;;;;6.00;3.70;;;19.80;98.50;;;;;;5064093;28;20473;-80
2023/06/07 07:24:00;;;;;;;5.65;3.70;;;20.50;98.20;;;;;;5064497;28;20769;-80
2023/06/07 07:26:27;;;;;;;5.95;3.50;;;21.10;97.30;;;;;;5070571;28;20663;-80
2023/06/07 07:28:54;;;;;;;6.68;3.40;;;21.70;96.30;;;;;;5064867;28;20220;-81
2023/06/07 07:31:21;;;;;;;4.57;3.45;;;22.40;95.10;;;;;;5069577;28;20860;-77
2023/06/07 07:33:47;;;;;;;4.53;3.17;;;22.90;94.40;;;;;;5061037;28;20710;-78
2023/06/07 07:36:17;;;;;;;5.88;3.20;;;23.50;92.90;;;;;;5068335;28;20233;-79
2023/06/07 07:38:45;;;;;;;4.43;2.90;;;24.00;91.70;;;;;;5069293;28;20222;-79
2023/06/07 07:41:13;;;;;;;5.75;3.20;;;24.50;91.00;;;;;;5070786;28;20273;-79
2023/06/07 07:43:40;;;;;;;4.53;2.70;;;25.00;89.40;;;;;;5072110;28;20235;-79
2023/06/07 07:46:07;;;;;;;3.72;2.40;;;25.40;87.30;;;;;;5070076;28;20225;-78
2023/06/07 07:48:33;;;;;;;3.35;2.55;;;25.80;84.20;;;;;;5068668;28;20705;-78
2023/06/07 07:51:00;;;;;;;3.20;2.30;;;26.20;82.00;;;;;;5069479;28;20247;-79
2023/06/07 07:53:28;;;;;;;4.32;2.60;;;26.60;80.60;;;;;;5070813;28;20296;-78
2023/06/07 07:55:56;;;;;;;4.35;2.10;;;27.00;78.90;;;;;;5069384;28;20226;-79
2023/06/07 07:58:22;;;;;;;5.82;2.40;;;27.40;76.90;;;;;;5060278;28;20220;-79
2023/06/07 08:00:49;;;;;;;3.72;2.53;;;27.70;75.30;;;;;;5065043;28;20330;-78
2023/06/07 08:03:16;;;;;;;6.03;2.60;;;28.00;73.80;;;;;;5071462;28;20219;-78
2023/06/07 08:05:43;;;;;;;3.58;2.78;;;28.20;72.20;;;;;;5069024;28;20278;-79
2023/06/07 08:08:09;;;;;;;4.72;2.50;;;28.40;71.70;;;;;;5071957;28;20294;-79
2023/06/07 08:10:38;;;;;;;4.05;2.47;;;28.60;70.30;;;;;;5070241;28;20223;-80
2023/06/07 08:13:05;;;;;;;3.58;2.30;;;28.80;65.90;;;;;;5066336;28;20223;-79
2023/06/07 08:15:32;;;;;;;4.10;2.33;;;28.90;66.80;;;;;;5086696;28;20228;-78
2023/06/07 08:17:59;;;;;;;3.35;2.58;;;29.00;65.40;;;;;;5070704;28;20692;-80
2023/06/07 08:20:25;;;;;;;3.33;2.50;;;29.10;64.00;;;;;;5073667;28;20314;-80
2023/06/07 08:22:53;;;;;;;2.95;1.95;;;29.10;63.50;;;;;;5071489;28;20233;-79
2023/06/07 08:25:21;;;;;;;3.20;2.20;;;29.10;63.50;;;;;;5073468;28;20235;-79
2023/06/07 08:27:49;;;;;;;3.22;2.35;;;29.20;63.20;;;;;;5063063;28;20285;-79
2023/06/07 08:30:17;;;;;;;5.45;2.38;;;29.40;62.30;;;;;;5073921;28;20223;-79
2023/06/07 08:32:44;;;;;;;5.18;2.33;;;29.60;62.80;;;;;;5070943;28;20297;-78
2023/06/07 08:35:11;;;;;;;4.35;2.50;;;30.00;62.00;;;;;;5072366;28;20573;-78
2023/06/07 08:37:38;;;;;;;3.60;2.72;;;30.20;60.80;;;;;;5073155;28;20227;-79
2023/06/07 08:40:06;;;;;;;4.78;2.47;;;30.50;59.20;;;;;;5070131;28;22099;-77
2023/06/07 08:42:33;;;;;;;4.63;2.40;;;30.60;58.80;;;;;;5072317;28;20250;-77
2023/06/07 08:45:01;;;;;;;3.45;2.50;;;30.80;58.20;;;;;;5070385;28;20234;-79
2023/06/07 08:47:29;;;;;;;4.15;2.38;;;30.80;56.70;;;;;;5062137;28;20236;-79
2023/06/07 08:49:57;;;;;;;3.97;2.38;;;31.00;56.80;;;;;;5068123;28;20485;-78
2023/06/07 08:52:24;;;;;;;3.35;2.50;;;31.20;56.60;;;;;;5068231;28;20235;-78
2023/06/07 08:54:53;;;;;;;4.63;2.50;;;31.40;55.80;;;;;;5065545;28;20528;-78
2023/06/07 08:57:20;;;;;;;2.42;2.22;;;31.60;55.10;;;;;;5068284;28;20258;-77
2023/06/07 08:59:48;;;;;;;5.40;2.67;;;31.80;54.10;;;;;;5069569;28;20283;-79
2023/06/07 09:02:17;;;;;;;6.18;2.55;;;32.00;53.60;;;;;;5074806;28;20250;-79
2023/06/07 09:04:44;;;;;;;4.30;2.63;;;32.10;53.70;;;;;;5071780;28;20223;-79
2023/06/07 09:07:12;;;;;;;3.50;2.63;;;32.30;52.80;;;;;;5072854;28;20220;-79
2023/06/07 09:09:43;;;;;;;4.78;2.63;;;32.50;52.40;;;;;;5069417;28;20220;-78
2023/06/07 09:12:10;;;;;;;4.28;2.78;;;32.80;51.80;;;;;;5065815;28;20229;-79
2023/06/07 09:14:37;;;;;;;3.78;2.63;;;32.90;50.90;;;;;;5065808;28;20586;-79
2023/06/07 09:17:04;;;;;;;5.35;2.40;;;33.00;50.50;;;;;;5067329;28;20219;-79
2023/06/07 09:19:37;;;;;;;5.22;2.50;;;33.00;50.50;;;;;;5069922;28;20229;-78
2023/06/07 09:22:06;;;;;;;5.95;2.70;;;33.00;49.80;;;;;;5069242;28;20215;-79
2023/06/07 09:24:34;;;;;;;5.75;2.97;;;33.10;50.20;;;;;;5068788;28;20253;-79
2023/06/07 09:27:03;;;;;;;6.13;2.83;;;33.10;49.60;;;;;;5071530;28;20223;-79
2023/06/07 09:29:38;;;;;;;7.75;3.22;;;33.20;49.50;;;;;;5070458;28;20781;-79
2023/06/07 09:32:17;;;;;;;5.82;2.90;;;33.20;49.50;;;;;;5067087;28;20249;-79
2023/06/07 09:34:45;;;;;;;4.90;3.15;;;33.30;48.00;;;;;;5067538;28;20219;-79
2023/06/07 09:37:13;;;;;;;6.40;3.20;;;33.40;48.90;;;;;;5066905;28;20229;-78
2023/06/07 09:39:40;;;;;;;6.25;3.25;;;33.40;48.70;;;;;;5072010;28;20223;-79
2023/06/07 09:42:15;;;;;;;5.43;3.35;;;33.40;48.70;;;;;;5068113;28;21047;-78
2023/06/07 09:44:42;;;;;;;5.65;3.35;;;33.40;47.80;;;;;;5063382;22;20225;-77
2023/06/07 09:47:20;;;;;;;6.00;3.25;;;33.40;48.70;;;;;;5019622;28;20227;-76
2023/06/07 09:49:48;;;;;;;8.32;3.33;;;33.50;48.60;;;;;;5017671;28;20229;-77
2023/06/07 09:52:16;;;;;;;6.90;3.33;;;33.70;48.60;;;;;;5021129;28;20216;-77
2023/06/07 09:54:44;;;;;;;7.70;3.42;;;33.80;48.20;;;;;;5017429;28;20226;-77
2023/06/07 09:57:12;;;;;;;5.90;3.00;;;34.00;48.00;;;;;;5020123;28;20722;-77
2023/06/07 09:59:39;;;;;;;5.93;3.13;;;34.10;48.10;;;;;;5018773;28;20316;-77
2023/06/07 10:02:24;;;;;;;4.28;2.70;;;34.10;47.70;;;;;;5020556;28;20216;-77
2023/06/07 10:04:55;;;;;;;7.28;3.40;;;34.20;46.90;;;;;;5024876;28;20244;-77
2023/06/07 10:07:23;;;;;;;5.00;3.10;;;34.30;46.80;;;;;;5022760;28;20220;-77
2023/06/07 10:09:54;;;;;;;4.10;3.15;;;34.30;46.80;;;;;;5022743;28;20276;-76
2023/06/07 10:12:23;;;;;;;5.93;3.05;;;34.30;46.50;;;;;;5016608;28;20232;-77
2023/06/07 10:14:52;;;;;;;7.32;3.92;;;34.20;46.10;;;;;;5018916;28;20680;-77
2023/06/07 10:17:23;;;;;;;8.13;3.15;;;34.10;46.20;;;;;;5014438;28;20752;-77
2023/06/07 10:19:51;;;;;;;6.82;3.65;;;34.00;46.00;;;;;;5020697;28;20335;-77
2023/06/07 10:22:24;;;;;;;5.63;3.42;;;33.80;46.60;;;;;;5023143;28;20303;-77
2023/06/07 10:24:56;;;;;;;6.88;3.75;;;33.70;46.40;;;;;;5017689;28;20260;-76
2023/06/07 10:27:24;;;;;;;6.63;3.45;;;33.70;46.40;;;;;;5017743;28;20345;-77
2023/06/07 10:30:00;;;;;;;5.03;3.47;;;33.90;47.00;;;;;;5020068;28;20249;-77
2023/06/07 10:32:31;;;;;;;6.70;3.55;;;34.00;46.30;;;;;;5021192;28;20224;-77
2023/06/07 10:35:01;;;;;;;7.95;3.13;;;34.10;46.50;;;;;;5019692;28;20659;-77
2023/06/07 10:37:32;;;;;;;7.00;3.83;;;34.30;46.30;;;;;;5020955;28;20411;-77
2023/06/07 10:39:59;;;;;;;5.70;3.65;;;34.50;46.20;;;;;;5018628;28;20701;-78
2023/06/07 10:42:27;;;;;;;8.65;3.85;;;34.60;45.70;;;;;;5018696;28;20269;-77
2023/06/07 10:44:55;;;;;;;5.97;3.88;;;34.80;45.50;;;;;;5024840;28;20268;-77
2023/06/07 10:47:29;;;;;;;5.30;3.65;;;34.90;45.40;;;;;;5014649;28;20266;-77
2023/06/07 10:49:56;;;;;;;7.30;4.10;;;35.00;44.90;;;;;;5017782;28;20216;-77
2023/06/07 10:52:23;;;;;;;5.95;3.83;;;35.00;44.80;;;;;;5041287;28;20225;-77
2023/06/07 10:54:52;;;;;;;6.43;4.00;;;35.10;44.20;;;;;;5026902;28;20224;-77
2023/06/07 10:57:36;;;;;;;5.75;3.85;;;35.10;44.30;;;;;;5022632;28;20227;-77
2023/06/07 11:00:26;;;;;;;10.20;4.35;;;35.20;44.30;;;;;;5044997;28;20736;-77
2023/06/07 11:03:26;;;;;;;7.47;4.13;;;35.30;44.20;;;;;;5045336;28;20235;-77
2023/06/07 11:06:08;;;;;;;9.05;4.15;;;35.40;44.10;;;;;;5026930;28;20243;-77
2023/06/07 11:08:37;;;;;;;6.78;3.97;;;35.60;44.00;;;;;;5024223;28;20219;-77
2023/06/07 11:11:35;;;;;;;7.32;3.92;;;35.70;43.70;;;;;;5042872;28;20592;-77
2023/06/07 11:14:19;;;;;;;8.48;5.18;;;35.60;43.60;;;;;;5040434;28;20220;-77
2023/06/07 11:16:46;;;;;;;8.23;4.40;;;35.50;42.80;;;;;;5037152;28;20231;-77
2023/06/07 11:19:18;;;;;;;8.38;4.32;;;35.40;43.40;;;;;;5040292;28;20285;-77
2023/06/07 11:22:04;;;;;;;6.07;4.07;;;35.30;42.20;;;;;;5029597;28;20230;-77
2023/06/07 11:24:38;;;;;;;8.27;4.50;;;35.20;43.30;;;;;;5025742;28;20306;-77
2023/06/07 11:27:13;;;;;;;6.78;4.60;;;35.20;43.40;;;;;;5020531;28;20713;-77
2023/06/07 11:29:41;;;;;;;6.32;4.53;;;35.10;43.00;;;;;;5025937;28;20235;-77
2023/06/07 11:32:10;;;;;;;10.10;4.30;;;35.10;42.80;;;;;;5020855;28;20294;-77
2023/06/07 11:34:37;;;;;;;7.20;3.90;;;34.90;42.70;;;;;;5023014;28;20227;-77
2023/06/07 11:37:11;;;;;;;6.68;4.50;;;34.70;43.00;;;;;;5035952;28;20231;-77
2023/06/07 11:39:37;;;;;;;9.75;4.00;;;34.60;42.90;;;;;;5038042;28;20337;-77
2023/06/07 11:42:05;;;;;;;5.20;4.32;;;34.60;43.20;;;;;;5039981;28;20254;-77
2023/06/07 11:44:35;;;;;;;6.05;4.05;;;34.60;43.40;;;;;;5042325;28;20225;-77
2023/06/07 11:47:05;;;;;;;4.82;4.00;;;34.60;43.50;;;;;;5035261;28;20661;-77
2023/06/07 11:49:33;;;;;;;7.28;4.45;;;34.50;43.40;;;;;;5033241;28;20722;-77
2023/06/07 11:52:00;;;;;;;5.85;4.07;;;34.60;43.90;;;;;;5033022;28;20224;-77
2023/06/07 11:54:27;;;;;;;7.78;4.38;;;34.60;43.70;;;;;;5037576;28;20890;-77
2023/06/07 11:56:54;;;;;;;7.57;4.00;;;34.60;43.30;;;;;;5040807;28;20315;-77
2023/06/07 11:59:22;;;;;;;10.73;4.35;;;34.60;43.00;;;;;;5032493;28;20237;-77
2023/06/07 12:01:53;;;;;;;6.55;3.75;;;34.60;43.10;;;;;;5036436;28;20281;-77
2023/06/07 12:04:21;;;;;;;6.35;3.72;;;34.50;42.70;;;;;;5030335;28;20286;-77
2023/06/07 12:06:49;;;;;;;8.15;4.10;;;34.40;43.00;;;;;;5042988;28;20227;-77
2023/06/07 12:09:18;;;;;;;7.22;3.65;;;34.30;43.00;;;;;;5036246;28;20598;-77
2023/06/07 12:11:45;;;;;;;6.38;3.60;;;34.20;42.90;;;;;;5034823;28;20282;-77
2023/06/07 12:14:12;;;;;;;5.38;3.15;;;34.20;43.00;;;;;;5027304;28;20307;-77
2023/06/07 12:16:39;;;;;;;4.75;3.30;;;34.10;42.90;;;;;;5024508;28;20285;-77
2023/06/07 12:19:08;;;;;;;7.13;3.63;;;34.00;42.80;;;;;;5029390;28;20307;-77
2023/06/07 12:21:34;;;;;;;6.97;3.88;;;34.00;42.60;;;;;;5037563;28;20225;-77
2023/06/07 12:24:02;;;;;;;5.30;3.00;;;33.80;42.40;;;;;;5023485;28;20230;-77
2023/06/07 12:26:28;;;;;;;6.43;3.38;;;33.70;42.80;;;;;;5038293;28;20792;-77
2023/06/07 12:28:55;;;;;;;5.50;3.45;;;33.60;42.90;;;;;;5041855;28;20276;-77
2023/06/07 12:31:23;;;;;;;7.60;3.70;;;33.50;42.60;;;;;;5042702;28;20303;-77
2023/06/07 12:33:57;;;;;;;5.97;3.45;;;33.40;42.90;;;;;;5044723;28;20247;-77
2023/06/07 12:36:29;;;;;;;6.93;3.67;;;33.10;43.10;;;;;;5040570;28;20866;-77
2023/06/07 12:38:59;;;;;;;7.75;3.15;;;33.00;43.30;;;;;;5040838;28;20651;-77
2023/06/07 12:41:27;;;;;;;8.70;3.40;;;32.90;43.50;;;;;;5042096;28;20609;-77
2023/06/07 12:43:55;;;;;;;6.95;3.17;;;32.80;43.40;;;;;;5015806;28;20686;-77
2023/06/07 12:46:22;;;;;;;6.57;3.55;;;32.80;43.60;;;;;;5036560;28;20304;-77
2023/06/07 12:48:49;;;;;;;5.93;2.65;;;32.70;43.70;;;;;;5040751;28;20251;-77
2023/06/07 12:51:16;;;;;;;4.85;2.90;;;32.80;43.40;;;;;;5040971;28;20769;-77